Time;durP1;ratioP1;P1;durP2;ratioP2;P2;SDS_P1;SDS_P2;PMS_P1;PMS_P2;Temp;Humidity;BMP_temperature;BMP_pressure;BME280_temperature;BME280_humidity;BME280_pressure;Samples;Min_cycle;Max_cycle;Signal;HPM_P1;HPM_P2
2021/01/23 00:01:58;;;;;;;44.70;17.92;;;;;;;4.19;93.13;96392.69;5110710;28;20093;-69
2021/01/23 00:04:24;;;;;;;43.88;18.90;;;;;;;4.17;93.53;96392.00;5111343;28;20043;-68
2021/01/23 00:06:50;;;;;;;40.97;17.67;;;;;;;4.17;93.46;96402.38;5104928;28;20410;-69
2021/01/23 00:09:16;;;;;;;38.92;16.02;;;;;;;4.20;93.67;96402.13;5090079;28;20129;-69
2021/01/23 00:11:42;;;;;;;40.83;16.42;;;;;;;4.36;92.87;96398.44;5108437;28;20434;-69
2021/01/23 00:14:08;;;;;;;41.28;17.65;;;;;;;4.28;92.86;96394.63;5110387;28;20044;-68
2021/01/23 00:16:34;;;;;;;40.35;16.40;;;;;;;4.33;93.02;96396.06;5107687;28;20227;-69
2021/01/23 00:19:00;;;;;;;38.83;15.27;;;;;;;4.25;92.54;96368.09;5095324;28;20096;-69
2021/01/23 00:21:26;;;;;;;34.28;15.88;;;;;;;4.18;92.60;96361.69;5110941;28;20498;-69
2021/01/23 00:23:52;;;;;;;36.60;15.57;;;;;;;4.28;92.34;96378.22;5111643;28;20078;-68
2021/01/23 00:26:18;;;;;;;40.72;16.02;;;;;;;4.41;92.50;96401.50;5109098;28;20228;-69
2021/01/23 00:28:43;;;;;;;40.05;16.77;;;;;;;4.39;91.84;96393.81;5091495;28;20395;-69
2021/01/23 00:31:09;;;;;;;35.38;15.90;;;;;;;4.40;92.58;96403.28;5093693;28;20052;-68
2021/01/23 00:33:35;;;;;;;41.28;16.27;;;;;;;4.45;91.14;96384.78;5095365;28;20063;-68
2021/01/23 00:36:01;;;;;;;38.40;16.55;;;;;;;4.71;90.02;96389.75;5113091;28;20475;-68
2021/01/23 00:38:27;;;;;;;36.08;15.45;;;;;;;4.74;89.86;96384.34;5095903;28;20048;-67
2021/01/23 00:40:53;;;;;;;32.88;13.80;;;;;;;4.76;89.55;96382.47;5094729;28;20056;-68
2021/01/23 00:43:19;;;;;;;32.83;13.20;;;;;;;4.87;89.63;96385.06;5093579;28;20647;-68
2021/01/23 00:45:45;;;;;;;32.33;13.98;;;;;;;4.87;89.08;96379.06;5094666;28;20052;-67
2021/01/23 00:48:12;;;;;;;28.75;12.10;;;;;;;4.79;89.82;96377.06;5110063;28;20050;-67
2021/01/23 00:50:39;;;;;;;30.25;11.63;;;;;;;4.77;89.38;96377.16;5115236;28;20047;-67
2021/01/23 00:53:05;;;;;;;30.27;12.20;;;;;;;4.57;91.02;96373.47;5114163;28;20479;-69
2021/01/23 00:55:31;;;;;;;38.20;15.10;;;;;;;4.70;90.60;96375.16;5097847;28;20040;-70
2021/01/23 00:57:57;;;;;;;40.25;15.23;;;;;;;4.56;90.66;96371.81;5093144;28;20055;-69
2021/01/23 01:00:24;;;;;;;35.65;14.55;;;;;;;4.45;92.47;96364.00;5093859;28;20052;-69
2021/01/23 01:02:50;;;;;;;35.13;15.02;;;;;;;4.45;91.68;96361.41;5094056;28;20479;-69
2021/01/23 01:05:16;;;;;;;39.90;15.70;;;;;;;4.48;91.42;96350.81;5093527;28;20048;-69
2021/01/23 01:07:42;;;;;;;38.67;14.30;;;;;;;4.71;90.59;96363.81;5105826;28;20444;-69
2021/01/23 01:10:10;;;;;;;33.38;13.75;;;;;;;4.79;90.02;96358.88;5107529;28;20085;-69
2021/01/23 01:12:36;;;;;;;41.67;15.85;;;;;;;4.74;90.75;96358.38;5114584;28;20134;-67
2021/01/23 01:15:04;;;;;;;26.10;11.07;;;;;;;4.97;88.89;96351.44;5099261;28;20043;-69
2021/01/23 01:17:30;;;;;;;27.63;11.00;;;;;;;4.84;89.27;96352.38;5093028;28;20044;-69
2021/01/23 01:19:56;;;;;;;33.53;13.52;;;;;;;4.94;88.65;96349.06;5092835;28;20048;-69
2021/01/23 01:22:22;;;;;;;27.42;11.18;;;;;;;5.04;88.17;96344.00;5093114;28;20062;-69
2021/01/23 01:24:48;;;;;;;27.45;12.52;;;;;;;5.17;86.75;96347.28;5094070;28;20052;-69
2021/01/23 01:27:14;;;;;;;29.00;11.68;;;;;;;5.14;86.71;96321.56;5092786;28;20567;-69
2021/01/23 01:29:40;;;;;;;24.00;10.15;;;;;;;5.13;86.84;96331.13;5099327;28;20173;-69
2021/01/23 01:32:06;;;;;;;27.45;10.93;;;;;;;5.18;86.12;96322.97;5113584;28;20134;-68
2021/01/23 01:34:33;;;;;;;28.10;11.00;;;;;;;5.17;87.25;96336.91;5099640;28;20444;-68
2021/01/23 01:36:59;;;;;;;27.90;11.48;;;;;;;5.14;86.56;96319.81;5093846;28;20188;-68
2021/01/23 01:39:26;;;;;;;28.05;11.27;;;;;;;5.13;87.13;96323.34;5093497;28;20123;-68
2021/01/23 01:41:52;;;;;;;31.20;11.70;;;;;;;4.99;87.47;96302.81;5113100;28;20108;-68
2021/01/23 01:44:18;;;;;;;25.42;11.32;;;;;;;4.97;87.80;96325.47;5113290;28;20040;-68
2021/01/23 01:46:44;;;;;;;27.17;10.60;;;;;;;5.13;87.82;96331.13;5112493;28;20542;-69
2021/01/23 01:49:10;;;;;;;25.85;10.15;;;;;;;5.03;87.79;96317.19;5112520;28;20126;-68
2021/01/23 01:51:36;;;;;;;25.92;10.63;;;;;;;5.08;88.09;96332.44;5093178;28;20059;-68
2021/01/23 01:54:03;;;;;;;19.85;9.52;;;;;;;5.26;87.30;96327.59;5093468;28;20044;-68
2021/01/23 01:56:29;;;;;;;21.13;9.65;;;;;;;5.22;86.74;96319.22;5091649;28;20040;-68
2021/01/23 01:58:56;;;;;;;20.73;10.00;;;;;;;5.28;86.66;96308.31;5093125;28;20070;-68
2021/01/23 02:01:22;;;;;;;26.35;8.90;;;;;;;5.45;86.14;96306.16;5093746;28;20063;-68
2021/01/23 02:04:03;;;;;;;24.10;9.23;;;;;;;5.62;85.11;96316.03;5098836;28;20045;-68
2021/01/23 02:07:03;;;;;;;24.15;8.07;;;;;;;5.76;84.29;96307.13;5110272;28;20558;-68
2021/01/23 02:10:00;;;;;;;23.50;9.48;;;;;;;5.76;84.34;96314.09;5094626;28;20063;-68
2021/01/23 02:12:34;;;;;;;18.00;9.18;;;;;;;5.66;84.59;96314.03;5099590;28;20063;-67
2021/01/23 02:15:16;;;;;;;20.50;9.98;;;;;;;5.59;84.66;96297.25;5093373;28;20044;-68
2021/01/23 02:18:09;;;;;;;17.70;9.30;;;;;;;5.42;85.13;96275.22;5092853;28;20058;-68
2021/01/23 02:21:11;;;;;;;25.63;8.88;;;;;;;5.33;86.36;96295.78;5091382;28;20044;-67
2021/01/23 02:23:45;;;;;;;18.17;8.45;;;;;;;5.20;87.16;96292.50;5091443;28;20044;-68
2021/01/23 02:26:50;;;;;;;24.20;9.63;;;;;;;5.22;87.57;96290.63;5090695;28;20051;-68
2021/01/23 02:29:48;;;;;;;25.90;10.15;;;;;;;5.01;89.08;96298.31;5092262;28;20040;-69
2021/01/23 02:32:16;;;;;;;31.50;11.13;;;;;;;5.06;88.79;96291.00;5091556;28;20090;-68
2021/01/23 02:34:45;;;;;;;20.70;9.10;;;;;;;4.98;89.07;96285.59;5091401;28;20044;-68
2021/01/23 02:37:12;;;;;;;18.27;8.10;;;;;;;4.94;89.44;96291.94;5092031;28;20055;-68
2021/01/23 02:39:38;;;;;;;16.08;7.63;;;;;;;4.89;89.39;96278.50;5109177;28;20130;-68
2021/01/23 02:42:05;;;;;;;18.17;7.97;;;;;;;4.94;89.25;96276.38;5111387;28;20082;-68
2021/01/23 02:44:31;;;;;;;19.45;7.82;;;;;;;4.99;89.01;96282.88;5096266;28;20039;-68
2021/01/23 02:46:57;;;;;;;16.55;6.50;;;;;;;4.94;88.91;96260.78;5110099;28;20040;-68
2021/01/23 02:49:24;;;;;;;11.93;6.55;;;;;;;4.90;89.47;96275.78;5096864;28;20044;-68
2021/01/23 02:52:18;;;;;;;16.92;7.22;;;;;;;4.68;90.00;96260.22;5090870;28;20062;-68
2021/01/23 02:54:53;;;;;;;19.02;7.82;;;;;;;4.54;90.70;96264.72;5091194;28;20476;-68
2021/01/23 02:57:22;;;;;;;17.45;8.60;;;;;;;4.57;90.87;96276.63;5073542;28;20051;-68
2021/01/23 02:59:52;;;;;;;21.08;8.15;;;;;;;4.60;90.14;96268.59;5090895;28;20047;-69
2021/01/23 03:02:19;;;;;;;18.38;8.50;;;;;;;4.56;89.91;96273.19;5090999;28;20092;-68
2021/01/23 03:04:46;;;;;;;20.23;8.90;;;;;;;4.51;89.85;96266.69;5090894;28;20051;-69
2021/01/23 03:07:16;;;;;;;20.23;8.50;;;;;;;4.39;90.11;96256.31;5111257;28;20047;-68
2021/01/23 03:09:43;;;;;;;19.50;8.18;;;;;;;4.45;90.10;96270.59;5110220;28;20054;-68
2021/01/23 03:12:10;;;;;;;19.40;8.48;;;;;;;4.36;90.62;96266.13;5111828;28;20063;-67
2021/01/23 03:14:37;;;;;;;18.08;7.80;;;;;;;4.24;90.84;96247.13;5111758;28;20069;-68
2021/01/23 03:17:03;;;;;;;18.45;7.75;;;;;;;4.21;91.52;96253.34;5112321;28;20059;-68
2021/01/23 03:19:29;;;;;;;15.55;8.13;;;;;;;4.16;92.27;96258.06;5105170;28;20391;-69
2021/01/23 03:21:56;;;;;;;21.35;8.70;;;;;;;4.22;91.65;96249.81;5099853;28;20056;-68
2021/01/23 03:24:22;;;;;;;17.67;8.70;;;;;;;4.16;92.17;96245.09;5111521;28;20075;-69
2021/01/23 03:26:49;;;;;;;19.92;8.20;;;;;;;4.14;92.38;96241.81;5112283;28;20048;-69
2021/01/23 03:29:17;;;;;;;19.70;7.90;;;;;;;4.26;92.05;96248.66;5108549;28;20055;-69
2021/01/23 03:31:45;;;;;;;13.68;7.25;;;;;;;4.34;91.67;96239.44;5091919;28;20408;-68
2021/01/23 03:34:11;;;;;;;17.40;7.63;;;;;;;4.38;91.31;96233.09;5094553;28;20045;-68
2021/01/23 03:36:37;;;;;;;20.73;8.70;;;;;;;4.38;91.05;96217.53;5096119;28;20486;-68
2021/01/23 03:39:05;;;;;;;21.90;7.45;;;;;;;4.40;91.13;96226.00;5111211;28;20044;-68
2021/01/23 03:41:32;;;;;;;22.15;7.85;;;;;;;4.36;91.21;96209.06;5108563;28;20071;-68
2021/01/23 03:43:58;;;;;;;20.10;8.02;;;;;;;4.53;90.76;96212.94;5112160;28;20043;-68
2021/01/23 03:46:25;;;;;;;13.85;6.75;;;;;;;4.65;89.89;96201.59;5111239;28;20047;-68
2021/01/23 03:48:51;;;;;;;29.52;10.55;;;;;;;4.86;88.80;96216.44;5090297;28;20387;-68
2021/01/23 03:51:17;;;;;;;18.05;7.50;;;;;;;4.86;88.42;96206.88;5090730;28;20044;-69
2021/01/23 03:53:43;;;;;;;17.17;7.03;;;;;;;4.86;88.87;96206.88;5100345;28;20043;-69
2021/01/23 03:56:09;;;;;;;20.80;8.18;;;;;;;5.07;87.13;96195.75;5111424;28;20051;-68
2021/01/23 03:58:35;;;;;;;18.40;7.03;;;;;;;5.16;86.38;96201.03;5092409;28;20125;-69
2021/01/23 04:01:04;;;;;;;14.82;7.05;;;;;;;5.27;86.32;96192.38;5089801;28;20479;-69
2021/01/23 04:03:31;;;;;;;14.68;6.43;;;;;;;5.56;84.69;96195.19;5090095;28;20051;-68
2021/01/23 04:05:57;;;;;;;13.95;5.95;;;;;;;5.49;84.63;96168.03;5090469;28;20399;-68
2021/01/23 04:08:23;;;;;;;15.88;7.15;;;;;;;5.72;83.60;96191.34;5105846;28;20542;-69
2021/01/23 04:10:49;;;;;;;13.88;5.88;;;;;;;5.78;83.62;96188.22;5111270;28;20263;-68
2021/01/23 04:13:15;;;;;;;16.48;6.10;;;;;;;5.90;82.91;96184.63;5103506;28;20052;-68
2021/01/23 04:15:41;;;;;;;23.58;8.00;;;;;;;5.96;82.70;96196.25;5090459;28;20206;-69
2021/01/23 04:18:07;;;;;;;23.40;8.55;;;;;;;5.76;83.46;96199.69;5091869;28;20392;-68
2021/01/23 04:20:33;;;;;;;17.70;7.07;;;;;;;5.78;83.23;96209.03;5090517;28;20491;-69
2021/01/23 04:23:00;;;;;;;18.58;6.47;;;;;;;5.67;83.77;96191.72;5109285;28;20048;-68
2021/01/23 04:25:26;;;;;;;16.75;7.00;;;;;;;5.88;83.17;96196.91;5110200;28;20044;-69
2021/01/23 04:27:52;;;;;;;20.38;7.40;;;;;;;5.95;82.38;96199.84;5100589;28;20051;-68
2021/01/23 04:30:18;;;;;;;25.73;7.13;;;;;;;5.73;83.47;96195.56;5105030;28;20043;-68
2021/01/23 04:32:44;;;;;;;14.35;6.55;;;;;;;5.65;83.82;96182.38;5111116;28;20035;-68
2021/01/23 04:35:12;;;;;;;16.13;7.47;;;;;;;5.59;83.73;96173.31;5110098;28;20491;-68
2021/01/23 04:37:40;;;;;;;18.77;6.78;;;;;;;5.48;84.25;96173.38;5101661;28;20163;-68
2021/01/23 04:40:08;;;;;;;17.50;6.88;;;;;;;5.61;84.50;96184.41;5075976;28;20043;-69
2021/01/23 04:42:39;;;;;;;21.40;7.03;;;;;;;5.69;83.68;96176.81;5108880;28;20131;-69
2021/01/23 04:45:08;;;;;;;17.02;6.80;;;;;;;5.88;83.29;96188.28;5090921;28;20526;-68
2021/01/23 04:47:34;;;;;;;15.55;6.28;;;;;;;6.03;81.83;96176.63;5090003;28;20154;-68
2021/01/23 04:50:02;;;;;;;13.55;5.72;;;;;;;6.31;80.97;96184.72;5073038;28;20048;-68
2021/01/23 04:52:28;;;;;;;16.35;5.88;;;;;;;6.52;79.92;96176.84;5103294;28;20047;-69
2021/01/23 04:54:55;;;;;;;13.85;5.68;;;;;;;6.68;79.13;96168.53;5109724;28;20040;-68
2021/01/23 04:57:21;;;;;;;10.10;4.70;;;;;;;6.65;79.36;96171.41;5094098;28;20036;-68
2021/01/23 04:59:46;;;;;;;15.15;4.82;;;;;;;6.58;79.17;96162.47;5091056;28;20093;-69
2021/01/23 05:02:23;;;;;;;13.68;4.50;;;;;;;6.73;78.68;96155.13;5103341;28;20411;-68
2021/01/23 05:04:58;;;;;;;13.57;4.80;;;;;;;6.67;78.69;96140.03;5090948;28;20127;-68
2021/01/23 05:07:40;;;;;;;12.25;5.15;;;;;;;6.72;78.34;96151.69;5088379;28;20048;-69
2021/01/23 05:10:24;;;;;;;;;;;;;;;6.59;79.11;96143.28;5097808;28;20056;-68
2021/01/23 05:12:53;;;;;;;12.38;5.22;;;;;;;6.49;79.49;96145.03;5100478;28;19971;-68
2021/01/23 05:15:28;;;;;;;13.18;5.05;;;;;;;6.46;79.26;96138.34;5109787;28;20048;-68
2021/01/23 05:18:02;;;;;;;12.85;5.15;;;;;;;6.36;80.10;96156.50;5100595;28;20062;-68
2021/01/23 05:20:34;;;;;;;13.52;5.18;;;;;;;6.35;80.57;96154.88;5100108;28;20111;-68
2021/01/23 05:23:18;;;;;;;;;;;;;;;6.26;80.85;96145.25;5095889;28;20047;-68
2021/01/23 05:25:50;;;;;;;11.05;5.18;;;;;;;6.45;79.86;96147.09;5099478;28;20011;-68
2021/01/23 05:28:31;;;;;;;13.18;5.07;;;;;;;6.45;79.99;96142.69;5102568;28;20096;-68
2021/01/23 05:31:00;;;;;;;9.60;4.50;;;;;;;6.44;79.83;96151.47;5108174;28;20043;-68
2021/01/23 05:33:32;;;;;;;13.82;5.25;;;;;;;6.76;78.21;96147.03;5094530;28;20367;-69
2021/01/23 05:36:13;;;;;;;10.20;4.33;;;;;;;6.68;78.58;96146.91;5106259;28;20048;-68
2021/01/23 05:38:41;;;;;;;8.30;4.55;;;;;;;6.89;77.75;96138.97;5092573;28;20325;-68
2021/01/23 05:41:08;;;;;;;9.23;4.78;;;;;;;6.74;78.30;96143.75;5107825;28;20051;-68
2021/01/23 05:43:45;;;;;;;10.05;4.80;;;;;;;6.54;79.51;96142.88;5112565;28;20431;-69
2021/01/23 05:46:43;;;;;;;8.73;4.05;;;;;;;6.76;78.33;96134.03;5112411;28;20046;-69
2021/01/23 05:49:09;;;;;;;7.45;4.15;;;;;;;6.76;77.83;96126.22;5068644;28;20058;-69
2021/01/23 05:51:35;;;;;;;9.27;4.45;;;;;;;6.65;78.54;96119.34;5112994;28;20066;-69
2021/01/23 05:54:01;;;;;;;9.38;4.43;;;;;;;6.55;79.04;96124.53;5102722;28;20487;-69
2021/01/23 05:56:27;;;;;;;8.73;4.45;;;;;;;6.61;79.48;96134.41;5111392;28;20056;-69
2021/01/23 05:58:53;;;;;;;11.90;4.90;;;;;;;6.60;79.33;96129.34;5113691;28;20422;-69
2021/01/23 06:01:20;;;;;;;10.30;4.20;;;;;;;6.46;79.96;96122.72;5107840;28;20115;-68
2021/01/23 06:03:55;;;;;;;11.43;4.45;;;;;;;6.40;80.41;96137.06;5108258;28;20069;-68
2021/01/23 06:06:21;;;;;;;9.85;4.32;;;;;;;6.38;80.41;96141.59;5092108;28;20105;-66
2021/01/23 06:08:48;;;;;;;11.00;4.85;;;;;;;6.37;80.21;96126.94;5108617;28;20061;-68
2021/01/23 06:11:18;;;;;;;10.23;5.15;;;;;;;6.34;80.18;96128.97;5107635;28;20055;-70
2021/01/23 06:13:49;;;;;;;11.35;4.93;;;;;;;6.31;80.69;96121.44;5092527;28;20067;-67
2021/01/23 06:16:33;;;;;;;10.23;5.63;;;;;;;6.25;80.55;96118.38;5101707;28;20044;-69
2021/01/23 06:19:20;;;;;;;13.48;5.55;;;;;;;6.22;80.61;96118.66;5113426;28;20406;-69
2021/01/23 06:21:46;;;;;;;10.45;4.82;;;;;;;6.37;79.92;96111.31;5101597;28;20097;-70
2021/01/23 06:24:17;;;;;;;12.02;4.95;;;;;;;6.35;79.50;96115.84;5095914;28;20052;-69
2021/01/23 06:26:52;;;;;;;13.07;4.72;;;;;;;6.50;78.72;96111.06;5090549;28;20059;-70
2021/01/23 06:29:32;;;;;;;9.82;4.60;;;;;;;6.59;77.78;96097.25;5101747;28;20096;-69
2021/01/23 06:32:18;;;;;;;11.88;5.00;;;;;;;6.64;77.82;96112.47;5112868;28;20048;-68
2021/01/23 06:34:52;;;;;;;13.82;5.82;;;;;;;6.54;78.17;96122.06;5093280;27;20081;-68
2021/01/23 06:37:22;;;;;;;15.38;5.43;;;;;;;6.58;78.05;96128.63;5092708;28;20044;-68
2021/01/23 06:40:11;;;;;;;13.98;5.18;;;;;;;6.47;78.39;96126.94;5091610;28;20111;-69
2021/01/23 06:42:44;;;;;;;12.02;5.25;;;;;;;6.42;78.29;96100.50;5091370;28;20079;-68
2021/01/23 06:45:18;;;;;;;10.70;4.85;;;;;;;6.53;77.99;96130.81;5093745;28;20051;-69
2021/01/23 06:48:05;;;;;;;9.80;4.93;;;;;;;6.80;76.62;96128.41;5091472;28;20089;-68
2021/01/23 06:50:38;;;;;;;10.18;4.72;;;;;;;6.95;75.87;96130.59;5090996;28;20036;-69
2021/01/23 06:53:26;;;;;;;7.68;4.07;;;;;;;7.11;74.94;96122.28;5092322;28;20495;-67
2021/01/23 06:55:56;;;;;;;9.02;4.90;;;;;;;6.91;75.81;96124.03;5091407;28;20066;-66
2021/01/23 06:58:28;;;;;;;14.43;5.47;;;;;;;6.99;75.40;96118.97;5105961;28;20138;-66
2021/01/23 07:00:56;;;;;;;;;;;;;;;6.84;75.97;96123.75;5104005;28;20127;-67
2021/01/23 07:03:24;;;;;;;9.15;4.53;;;;;;;6.68;76.58;96118.25;5108489;28;19928;-67
2021/01/23 07:05:56;;;;;;;13.75;5.85;;;;;;;6.54;77.37;96117.66;5089460;28;20065;-67
2021/01/23 07:08:27;;;;;;;;;;;;;;;6.65;76.85;96129.75;5108520;28;20525;-67
2021/01/23 07:11:14;;;;;;;9.65;4.47;;;;;;;6.92;75.85;96133.47;5092108;28;19919;-67
2021/01/23 07:14:07;;;;;;;13.18;5.65;;;;;;;6.82;75.99;96139.50;5095381;28;20048;-68
2021/01/23 07:16:39;;;;;;;13.18;5.55;;;;;;;6.75;76.31;96138.41;5106848;28;20096;-68
2021/01/23 07:19:08;;;;;;;12.95;5.60;;;;;;;6.75;76.10;96124.56;5097965;28;20469;-68
2021/01/23 07:21:39;;;;;;;15.63;6.30;;;;;;;6.80;76.15;96146.63;5092184;28;20097;-68
2021/01/23 07:24:09;;;;;;;13.73;6.18;;;;;;;6.89;75.51;96152.84;5090339;28;20048;-67
2021/01/23 07:26:35;;;;;;;16.27;6.50;;;;;;;6.89;75.57;96141.56;5093063;28;20067;-66
2021/01/23 07:29:02;;;;;;;12.55;6.15;;;;;;;6.90;75.34;96130.19;5087217;28;20149;-66
2021/01/23 07:31:31;;;;;;;16.73;6.97;;;;;;;7.00;75.04;96151.88;5098636;28;20126;-66
2021/01/23 07:34:01;;;;;;;20.25;7.50;;;;;;;6.94;75.26;96139.41;5095620;28;20052;-68
2021/01/23 07:36:45;;;;;;;19.55;7.50;;;;;;;6.83;76.14;96148.16;5098507;28;20087;-66
2021/01/23 07:39:19;;;;;;;19.13;7.53;;;;;;;6.94;75.50;96142.00;5091902;28;20438;-66
2021/01/23 07:41:54;;;;;;;17.85;6.82;;;;;;;7.10;74.99;96128.44;5089049;28;20055;-66
2021/01/23 07:44:24;;;;;;;;;;;;;;;7.12;74.98;96137.78;5092043;28;20124;-65
2021/01/23 07:46:50;;;;;;;14.10;5.68;;;;;;;7.28;74.00;96125.97;5090619;28;19920;-65
2021/01/23 07:49:27;;;;;;;10.60;5.03;;;;;;;7.30;73.92;96129.25;5091989;28;20380;-66
2021/01/23 07:52:09;;;;;;;12.80;4.97;;;;;;;7.38;73.29;96111.13;5090335;28;20173;-66
2021/01/23 07:54:49;;;;;;;9.30;4.65;;;;;;;7.45;73.11;96122.66;5090462;28;20068;-69
2021/01/23 07:57:16;;;;;;;9.15;4.00;;;;;;;7.61;72.69;96118.66;5091365;28;20131;-66
2021/01/23 07:59:44;;;;;;;11.15;4.93;;;;;;;7.55;72.75;96114.81;5107921;28;20039;-67
2021/01/23 08:02:10;;;;;;;9.07;4.70;;;;;;;7.69;71.87;96109.19;5111476;28;20047;-66
2021/01/23 08:04:38;;;;;;;8.70;4.43;;;;;;;7.67;72.09;96099.84;5108574;28;20040;-70
2021/01/23 08:07:17;;;;;;;7.47;3.85;;;;;;;7.80;71.63;96112.56;5102022;28;20044;-66
2021/01/23 08:09:44;;;;;;;8.45;4.13;;;;;;;7.69;72.04;96088.31;5090717;28;20066;-68
2021/01/23 08:12:28;;;;;;;8.63;4.45;;;;;;;7.62;72.31;96097.66;5110008;28;20104;-66
2021/01/23 08:14:56;;;;;;;8.63;4.47;;;;;;;7.67;72.25;96105.88;5105038;28;20040;-66
2021/01/23 08:17:44;;;;;;;10.35;4.50;;;;;;;7.51;72.46;96093.44;5103656;28;20177;-67
2021/01/23 08:20:16;;;;;;;9.10;4.38;;;;;;;7.42;72.95;96086.44;5110865;28;20042;-66
2021/01/23 08:22:56;;;;;;;;;;;;;;;7.74;71.55;96107.91;5109251;28;20135;-66
2021/01/23 08:25:31;;;;;;;12.57;5.40;;;;;;;7.68;71.16;96091.06;5110525;28;20420;-66
2021/01/23 08:27:58;;;;;;;9.55;5.13;;;;;;;7.69;71.42;96097.91;5091535;28;20599;-66
2021/01/23 08:30:26;;;;;;;12.52;6.00;;;;;;;7.80;70.96;96094.31;5091065;28;20036;-66
2021/01/23 08:32:53;;;;;;;11.18;5.50;;;;;;;7.76;71.12;96096.41;5107204;28;20051;-66
2021/01/23 08:35:19;;;;;;;11.68;4.95;;;;;;;7.67;71.48;96094.63;5111443;28;20099;-66
2021/01/23 08:37:47;;;;;;;10.93;5.63;;;;;;;7.69;71.08;96090.09;5108682;28;20067;-66
2021/01/23 08:40:21;;;;;;;11.25;5.47;;;;;;;7.71;71.26;96093.41;5110931;28;20055;-66
2021/01/23 08:42:48;;;;;;;11.30;6.00;;;;;;;7.70;71.79;96089.13;5108491;28;20068;-66
2021/01/23 08:45:15;;;;;;;9.77;5.70;;;;;;;7.45;71.98;96072.31;5111349;28;20048;-66
2021/01/23 08:47:42;;;;;;;12.40;6.50;;;;;;;7.57;72.05;96083.41;5106108;28;20035;-67
2021/01/23 08:50:09;;;;;;;13.88;6.57;;;;;;;7.51;72.11;96084.78;5096767;28;20101;-66
2021/01/23 08:52:36;;;;;;;14.43;6.60;;;;;;;7.57;71.92;96099.03;5108642;28;20043;-67
2021/01/23 08:55:04;;;;;;;9.07;5.45;;;;;;;7.49;71.64;96073.66;5102686;28;20109;-66
2021/01/23 08:57:31;;;;;;;12.80;5.60;;;;;;;7.60;71.59;96091.78;5108585;28;20483;-66
2021/01/23 08:59:57;;;;;;;12.93;6.03;;;;;;;7.60;71.70;96104.81;5096018;28;20055;-66
2021/01/23 09:02:23;;;;;;;9.93;5.32;;;;;;;7.46;71.84;96095.66;5114022;28;20050;-67
2021/01/23 09:04:49;;;;;;;12.13;5.53;;;;;;;7.45;71.73;96101.81;5114570;28;20519;-65
2021/01/23 09:07:15;;;;;;;13.52;5.90;;;;;;;7.43;72.54;96108.97;5115305;28;20051;-67
2021/01/23 09:09:41;;;;;;;12.20;6.38;;;;;;;7.37;73.24;96103.47;5114472;28;20043;-68
2021/01/23 09:12:08;;;;;;;14.65;7.55;;;;;;;7.14;74.87;96109.78;5115114;28;20051;-66
2021/01/23 09:14:35;;;;;;;14.68;7.45;;;;;;;7.15;74.85;96100.19;5115044;28;20528;-67
2021/01/23 09:17:01;;;;;;;16.02;8.10;;;;;;;6.92;75.69;96077.03;5112970;28;20040;-67
2021/01/23 09:19:28;;;;;;;16.05;7.70;;;;;;;6.96;76.05;96098.41;5114545;28;20048;-65
2021/01/23 09:21:55;;;;;;;15.57;7.97;;;;;;;6.79;76.68;96098.09;5095593;28;20495;-65
2021/01/23 09:24:21;;;;;;;14.93;7.53;;;;;;;6.88;76.37;96106.09;5095526;28;20043;-67
2021/01/23 09:26:47;;;;;;;17.52;8.38;;;;;;;6.84;76.08;96084.69;5092257;28;20060;-67
2021/01/23 09:29:13;;;;;;;16.20;8.68;;;;;;;6.79;76.40;96077.28;5095379;28;20048;-66
2021/01/23 09:31:40;;;;;;;16.58;8.63;;;;;;;6.88;76.22;96090.44;5092276;28;20071;-69
2021/01/23 09:34:07;;;;;;;18.95;8.73;;;;;;;7.01;75.32;96093.59;5096646;28;20086;-66
2021/01/23 09:36:33;;;;;;;17.95;9.10;;;;;;;7.01;75.30;96090.19;5078797;28;20068;-66
2021/01/23 09:38:59;;;;;;;19.30;8.88;;;;;;;7.12;74.70;96096.09;5114329;28;20588;-66
2021/01/23 09:41:26;;;;;;;18.83;8.73;;;;;;;7.15;74.51;96093.19;5114404;28;20506;-66
2021/01/23 09:43:52;;;;;;;17.58;9.60;;;;;;;7.04;74.71;96093.31;5113946;28;20135;-67
2021/01/23 09:46:18;;;;;;;18.38;9.02;;;;;;;7.20;74.29;96087.56;5103479;28;20143;-66
2021/01/23 09:48:44;;;;;;;19.55;9.32;;;;;;;7.29;73.91;96088.50;5093683;28;20443;-67
2021/01/23 09:51:12;;;;;;;17.27;8.40;;;;;;;7.39;73.02;96080.69;5108984;28;20138;-66
2021/01/23 09:53:38;;;;;;;22.60;9.15;;;;;;;7.65;72.45;96083.53;5114537;28;20040;-66
2021/01/23 09:56:06;;;;;;;15.98;8.18;;;;;;;7.76;71.84;96083.34;5113066;28;20101;-67
2021/01/23 09:58:32;;;;;;;16.55;8.25;;;;;;;7.74;71.50;96077.47;5093639;28;20048;-67
2021/01/23 10:00:58;;;;;;;19.00;8.45;;;;;;;7.82;71.08;96077.56;5092609;28;20075;-67
2021/01/23 10:03:24;;;;;;;18.35;8.45;;;;;;;7.78;71.51;96084.03;5091713;28;20047;-67
2021/01/23 10:05:50;;;;;;;16.90;8.63;;;;;;;7.80;71.34;96078.66;5093049;28;20039;-67
2021/01/23 10:08:16;;;;;;;18.90;8.70;;;;;;;7.75;70.84;96070.47;5093533;28;20169;-67
2021/01/23 10:10:42;;;;;;;17.25;8.57;;;;;;;7.83;70.89;96083.59;5092171;28;20060;-69
2021/01/23 10:13:08;;;;;;;18.52;8.15;;;;;;;7.87;70.46;96082.38;5093064;28;20059;-67
2021/01/23 10:15:34;;;;;;;15.27;7.95;;;;;;;7.91;70.51;96075.06;5091948;28;20123;-68
2021/01/23 10:18:01;;;;;;;16.85;8.02;;;;;;;8.17;69.10;96083.06;5108016;28;20134;-67
2021/01/23 10:20:27;;;;;;;18.45;8.57;;;;;;;8.27;68.64;96083.03;5075329;28;20475;-67
2021/01/23 10:22:54;;;;;;;15.30;7.68;;;;;;;8.31;68.72;96087.81;5092659;28;20043;-67
2021/01/23 10:25:21;;;;;;;16.15;7.57;;;;;;;8.27;68.81;96090.88;5093496;28;20153;-67
2021/01/23 10:27:48;;;;;;;17.13;8.15;;;;;;;8.20;68.29;96073.19;5092892;28;20116;-67
2021/01/23 10:30:14;;;;;;;15.98;7.75;;;;;;;8.27;68.60;96094.28;5092594;28;20055;-68
2021/01/23 10:32:40;;;;;;;14.73;7.57;;;;;;;8.46;67.89;96095.19;5093338;28;20127;-65
2021/01/23 10:35:08;;;;;;;16.83;7.63;;;;;;;8.45;68.45;96083.94;5091549;28;20122;-65
2021/01/23 10:37:34;;;;;;;15.57;7.72;;;;;;;8.35;69.01;96093.56;5093183;28;20040;-65
2021/01/23 10:40:00;;;;;;;18.98;7.70;;;;;;;8.20;69.97;96095.81;5092368;28;20070;-66
2021/01/23 10:42:26;;;;;;;16.85;7.47;;;;;;;8.43;68.55;96114.53;5091955;28;20063;-65
2021/01/23 10:44:52;;;;;;;13.40;6.97;;;;;;;8.38;69.23;96109.75;5090871;28;20063;-65
2021/01/23 10:47:18;;;;;;;16.10;6.65;;;;;;;8.18;70.19;96106.41;5091850;28;20051;-65
2021/01/23 10:49:44;;;;;;;12.35;6.47;;;;;;;8.23;69.34;96106.81;5091998;28;20058;-66
2021/01/23 10:52:10;;;;;;;12.30;6.38;;;;;;;8.31;68.90;96103.50;5092493;28;20043;-67
2021/01/23 10:54:37;;;;;;;13.77;5.85;;;;;;;8.57;67.54;96090.59;5092919;28;20048;-65
2021/01/23 10:57:05;;;;;;;11.68;5.30;;;;;;;8.80;66.91;96103.22;5106164;28;20104;-67
2021/01/23 10:59:31;;;;;;;13.23;6.05;;;;;;;8.75;66.82;96106.28;5112577;28;20375;-66
2021/01/23 11:01:56;;;;;;;10.45;5.63;;;;;;;8.55;67.63;96092.50;5112138;28;20050;-64
2021/01/23 11:04:22;;;;;;;10.13;5.53;;;;;;;8.64;67.57;96090.00;5112743;28;20046;-65
2021/01/23 11:06:49;;;;;;;9.30;5.05;;;;;;;8.58;67.45;96097.44;5112717;28;20042;-67
2021/01/23 11:09:15;;;;;;;10.35;5.00;;;;;;;8.57;67.77;96093.22;5080308;28;20059;-66
2021/01/23 11:11:41;;;;;;;10.02;5.28;;;;;;;8.53;67.52;96091.84;5092480;28;20500;-71
2021/01/23 11:14:07;;;;;;;10.90;5.43;;;;;;;8.40;68.30;96096.56;5091901;28;20048;-65
2021/01/23 11:16:33;;;;;;;10.88;5.05;;;;;;;8.31;68.41;96086.97;5091640;28;20177;-67
2021/01/23 11:18:59;;;;;;;11.35;5.78;;;;;;;8.40;68.11;96083.50;5091967;28;20363;-68
2021/01/23 11:21:26;;;;;;;13.30;6.03;;;;;;;8.39;68.36;96077.47;5092135;28;20046;-65
2021/01/23 11:23:52;;;;;;;12.18;5.50;;;;;;;8.31;68.56;96090.44;5089860;28;20093;-66
2021/01/23 11:26:18;;;;;;;13.57;6.22;;;;;;;8.15;69.27;96078.00;5091789;28;20054;-66
2021/01/23 11:28:44;;;;;;;12.10;6.05;;;;;;;8.24;69.00;96090.16;5092295;28;20044;-66
2021/01/23 11:31:10;;;;;;;14.15;6.68;;;;;;;8.33;68.63;96085.06;5089859;28;20047;-66
2021/01/23 11:33:38;;;;;;;12.63;6.75;;;;;;;8.27;69.05;96085.66;5109126;28;20040;-66
2021/01/23 11:36:04;;;;;;;16.67;7.22;;;;;;;8.34;68.77;96071.03;5112116;28;20053;-66
2021/01/23 11:38:30;;;;;;;13.60;7.00;;;;;;;8.52;68.04;96051.03;5112347;28;20546;-65
2021/01/23 11:40:56;;;;;;;14.80;6.90;;;;;;;8.72;67.25;96054.31;5101495;28;20134;-66
2021/01/23 11:43:23;;;;;;;13.35;6.47;;;;;;;8.93;66.55;96043.59;5103610;28;20059;-66
2021/01/23 11:45:49;;;;;;;15.27;7.50;;;;;;;8.93;66.24;96033.13;5112102;28;20050;-70